createdAt,value
2022-08-29T00:00:51.524Z,1008.76
2022-08-29T00:03:51.586Z,1008.76
2022-08-29T00:06:51.524Z,1008.68
2022-08-29T00:09:51.527Z,1008.67
2022-08-29T00:12:51.538Z,1008.68
2022-08-29T00:15:51.531Z,1008.71
2022-08-29T00:18:51.522Z,1008.73
2022-08-29T00:21:51.529Z,1008.76
2022-08-29T00:24:51.542Z,1008.76
2022-08-29T00:27:51.530Z,1008.75
2022-08-29T00:30:51.527Z,1008.75
2022-08-29T00:33:51.545Z,1008.77
2022-08-29T00:36:51.531Z,1008.78
2022-08-29T00:39:51.526Z,1008.78
2022-08-29T00:42:51.533Z,1008.82
2022-08-29T00:45:51.582Z,1008.76
2022-08-29T00:48:51.532Z,1008.76
2022-08-29T00:51:51.529Z,1008.78
2022-08-29T00:54:51.541Z,1008.81
2022-08-29T00:57:51.532Z,1008.84
2022-08-29T01:00:51.582Z,1008.84
2022-08-29T01:03:51.540Z,1008.83
2022-08-29T01:06:51.530Z,1008.83
2022-08-29T01:09:51.529Z,1008.8
2022-08-29T01:12:51.528Z,1008.81
2022-08-29T01:15:51.530Z,1008.82
2022-08-29T01:18:51.525Z,1008.84
2022-08-29T01:21:51.669Z,1008.83
2022-08-29T01:24:51.551Z,1008.85
2022-08-29T01:27:51.562Z,1008.82
2022-08-29T01:30:51.566Z,1008.81
2022-08-29T01:33:51.559Z,1008.85
2022-08-29T01:36:51.548Z,1008.83
2022-08-29T01:39:51.566Z,1008.81
2022-08-29T01:42:51.545Z,1008.85
2022-08-29T01:45:51.643Z,1008.92
2022-08-29T01:48:51.558Z,1008.98
2022-08-29T01:51:51.557Z,1008.96
2022-08-29T01:54:51.545Z,1009.04
2022-08-29T01:57:51.601Z,1009.06
2022-08-29T02:00:51.586Z,1009
2022-08-29T02:03:51.546Z,1008.98
2022-08-29T02:06:51.592Z,1009
2022-08-29T02:09:51.552Z,1008.98
2022-08-29T02:12:51.546Z,1009.05
2022-08-29T02:15:51.561Z,1009.04
2022-08-29T02:18:51.560Z,1009.09
2022-08-29T02:21:51.556Z,1009.13
2022-08-29T02:24:51.557Z,1009.13
2022-08-29T02:27:51.550Z,1009.12
2022-08-29T02:30:52.140Z,1009.14
2022-08-29T02:33:51.550Z,1009.09
2022-08-29T02:36:51.563Z,1009.09
2022-08-29T02:39:51.550Z,1009.08
2022-08-29T02:42:51.551Z,1009.13
2022-08-29T02:45:51.545Z,1009.15
2022-08-29T02:48:59.914Z,1009.12
2022-08-29T02:51:51.550Z,1009.12
2022-08-29T02:54:51.568Z,1009.06
2022-08-29T02:57:51.552Z,1009.06
2022-08-29T03:00:51.630Z,1009.11
2022-08-29T03:03:51.552Z,1009.09
2022-08-29T03:06:51.549Z,1009.14
2022-08-29T03:09:51.543Z,1009.18
2022-08-29T03:12:51.553Z,1009.16
2022-08-29T03:15:51.606Z,1009.13
2022-08-29T03:18:51.555Z,1009.12
2022-08-29T03:21:51.551Z,1009.09
2022-08-29T03:24:51.556Z,1009.13
2022-08-29T03:27:51.552Z,1009.19
2022-08-29T03:30:51.583Z,1009.18
2022-08-29T03:33:51.553Z,1009.19
2022-08-29T03:36:51.553Z,1009.2
2022-08-29T03:39:51.560Z,1009.19
2022-08-29T03:42:51.556Z,1009.2
2022-08-29T03:45:51.549Z,1009.21
2022-08-29T03:48:51.551Z,1009.18
2022-08-29T03:51:51.551Z,1009.19
2022-08-29T03:54:51.552Z,1009.17
2022-08-29T03:57:51.559Z,1009.18
2022-08-29T04:00:51.551Z,1009.14
2022-08-29T04:03:51.563Z,1009.14
2022-08-29T04:06:51.566Z,1009.15
2022-08-29T04:09:51.554Z,1009.16
2022-08-29T04:12:54.642Z,1009.12
2022-08-29T04:15:51.607Z,1009.13
2022-08-29T04:18:51.557Z,1009.11
2022-08-29T04:21:51.562Z,1009.13
2022-08-29T04:24:51.556Z,1009.22
2022-08-29T04:27:51.560Z,1009.27
2022-08-29T04:30:52.700Z,1009.29
2022-08-29T04:33:51.562Z,1009.3
2022-08-29T04:36:51.562Z,1009.34
2022-08-29T04:39:51.587Z,1009.32
2022-08-29T04:42:51.575Z,1009.34
2022-08-29T04:45:51.570Z,1009.33
2022-08-29T04:48:51.583Z,1009.31
2022-08-29T04:51:51.578Z,1009.29
2022-08-29T04:54:51.575Z,1009.29
2022-08-29T04:57:51.581Z,1009.29
2022-08-29T05:00:51.587Z,1009.34
2022-08-29T05:03:51.583Z,1009.32
2022-08-29T05:06:51.636Z,1009.38
2022-08-29T05:09:51.588Z,1009.43
2022-08-29T05:12:51.581Z,1009.52
2022-08-29T05:15:51.652Z,1009.54
2022-08-29T05:18:51.588Z,1009.59
2022-08-29T05:21:51.586Z,1009.65
2022-08-29T05:24:51.591Z,1009.65
2022-08-29T05:27:51.623Z,1009.61
2022-08-29T05:30:51.671Z,1009.62
2022-08-29T05:33:51.591Z,1009.63
2022-08-29T05:36:51.591Z,1009.62
2022-08-29T05:39:51.592Z,1009.64
2022-08-29T05:42:51.589Z,1009.64
2022-08-29T05:45:51.617Z,1009.64
2022-08-29T05:48:51.588Z,1009.6
2022-08-29T05:51:51.590Z,1009.61
2022-08-29T05:54:51.591Z,1009.56
2022-08-29T05:57:51.605Z,1009.59
2022-08-29T06:00:51.592Z,1009.58
2022-08-29T06:03:51.680Z,1009.64
2022-08-29T06:06:51.585Z,1009.65
2022-08-29T06:09:51.588Z,1009.66
2022-08-29T06:12:51.768Z,1009.63
2022-08-29T06:15:51.699Z,1009.64
2022-08-29T06:18:51.647Z,1009.65
2022-08-29T06:21:51.660Z,1009.66
2022-08-29T06:24:51.649Z,1009.71
2022-08-29T06:27:51.659Z,1009.74
2022-08-29T06:30:51.662Z,1009.79
2022-08-29T06:33:51.651Z,1009.79
2022-08-29T06:36:51.665Z,1009.86
2022-08-29T06:39:51.655Z,1009.89
2022-08-29T06:42:51.658Z,1009.82
2022-08-29T06:45:51.685Z,1009.82
2022-08-29T06:48:51.653Z,1009.85
2022-08-29T06:51:55.537Z,1009.91
2022-08-29T06:54:51.750Z,1010
2022-08-29T06:57:51.651Z,1010
2022-08-29T07:00:51.652Z,1010.01
2022-08-29T07:03:51.658Z,1010.01
2022-08-29T07:06:51.658Z,1010.01
2022-08-29T07:09:51.830Z,1009.98
2022-08-29T07:12:51.655Z,1009.98
2022-08-29T07:15:51.723Z,1009.94
2022-08-29T07:18:51.667Z,1009.94
2022-08-29T07:21:51.663Z,1009.94
2022-08-29T07:24:51.659Z,1010.01
2022-08-29T07:27:51.997Z,1010
2022-08-29T07:30:51.696Z,1010.03
2022-08-29T07:33:53.379Z,1010.08
2022-08-29T07:36:51.662Z,1010.03
2022-08-29T07:39:51.654Z,1010.05
2022-08-29T07:42:51.653Z,1010.05
2022-08-29T07:45:51.679Z,1010.02
2022-08-29T07:48:51.667Z,1010.02
2022-08-29T07:51:51.654Z,1010.03
2022-08-29T07:54:51.654Z,1010.02
2022-08-29T07:57:51.667Z,1010.02
2022-08-29T08:00:51.663Z,1010.02
2022-08-29T08:03:51.659Z,1009.98
2022-08-29T08:06:51.656Z,1009.96
2022-08-29T08:09:51.664Z,1010
2022-08-29T08:12:51.656Z,1009.98
2022-08-29T08:15:51.658Z,1010.01
2022-08-29T08:18:51.657Z,1009.98
2022-08-29T08:21:51.673Z,1010.02
2022-08-29T08:24:51.696Z,1010.03
2022-08-29T08:27:51.658Z,1010.07
2022-08-29T08:30:51.710Z,1010.02
2022-08-29T08:33:51.655Z,1010.05
2022-08-29T08:36:51.664Z,1010.04
2022-08-29T08:39:51.666Z,1010.03
2022-08-29T08:42:51.666Z,1010.03
2022-08-29T08:45:51.724Z,1010.02
2022-08-29T08:48:51.655Z,1010.05
2022-08-29T08:51:51.664Z,1010.07
2022-08-29T08:54:51.668Z,1010.12
2022-08-29T08:57:51.658Z,1010.08
2022-08-29T09:00:51.719Z,1010.09
2022-08-29T09:03:51.670Z,1010.1
2022-08-29T09:06:51.669Z,1010.08
2022-08-29T09:09:51.674Z,1010.08
2022-08-29T09:12:51.716Z,1010.05
2022-08-29T09:15:51.666Z,1010.04
2022-08-29T09:18:52.887Z,1010.06
2022-08-29T09:21:51.663Z,1010.01
2022-08-29T09:24:51.666Z,1010.02
2022-08-29T09:27:51.666Z,1010.03
2022-08-29T09:30:51.669Z,1010.01
2022-08-29T09:33:51.665Z,1010.04
2022-08-29T09:36:51.717Z,1010.05
2022-08-29T09:39:51.977Z,1010.05
2022-08-29T09:42:51.669Z,1010
2022-08-29T09:45:51.721Z,1009.96
2022-08-29T09:48:51.667Z,1009.95
2022-08-29T09:51:51.668Z,1009.95
2022-08-29T09:54:51.667Z,1009.96
2022-08-29T09:57:51.737Z,1010
2022-08-29T10:00:51.686Z,1009.96
2022-08-29T10:03:51.669Z,1009.95
2022-08-29T10:06:52.820Z,1009.93
2022-08-29T10:09:51.661Z,1009.86
2022-08-29T10:12:51.657Z,1009.9
2022-08-29T10:15:51.783Z,1009.86
2022-08-29T10:18:51.669Z,1009.84
2022-08-29T10:21:51.663Z,1009.81
2022-08-29T10:24:51.668Z,1009.82
2022-08-29T10:27:51.675Z,1009.77
2022-08-29T10:30:51.666Z,1009.77
2022-08-29T10:33:51.672Z,1009.8
2022-08-29T10:36:51.680Z,1009.72
2022-08-29T10:39:51.673Z,1009.72
2022-08-29T10:42:51.676Z,1009.71
2022-08-29T10:45:51.695Z,1009.71
2022-08-29T10:48:51.674Z,1009.67
2022-08-29T10:51:51.672Z,1009.67
2022-08-29T10:54:51.665Z,1009.63
2022-08-29T10:57:51.668Z,1009.55
2022-08-29T11:00:51.741Z,1009.57
2022-08-29T11:03:51.681Z,1009.57
2022-08-29T11:06:51.679Z,1009.53
2022-08-29T11:09:51.674Z,1009.5
2022-08-29T11:12:51.675Z,1009.55
2022-08-29T11:15:51.672Z,1009.53
2022-08-29T11:18:51.676Z,1009.49
2022-08-29T11:21:51.671Z,1009.45
2022-08-29T11:24:51.671Z,1009.44
2022-08-29T11:27:51.673Z,1009.4
2022-08-29T11:30:51.669Z,1009.37
2022-08-29T11:33:51.675Z,1009.34
2022-08-29T11:36:51.685Z,1009.3
2022-08-29T11:39:51.669Z,1009.23
2022-08-29T11:42:52.094Z,1009.22
2022-08-29T11:45:51.675Z,1009.23
2022-08-29T11:48:51.681Z,1009.23
2022-08-29T11:51:51.673Z,1009.18
2022-08-29T11:54:51.679Z,1009.16
2022-08-29T11:57:51.674Z,1009.18
2022-08-29T12:00:51.710Z,1009.11
2022-08-29T12:03:51.670Z,1009.05
2022-08-29T12:06:51.674Z,1009.04
2022-08-29T12:09:51.678Z,1008.97
2022-08-29T12:12:51.675Z,1008.96
2022-08-29T12:15:51.713Z,1008.93
2022-08-29T12:18:51.680Z,1008.88
2022-08-29T12:21:51.685Z,1008.89
2022-08-29T12:24:57.319Z,1008.83
2022-08-29T12:27:51.678Z,1008.88
2022-08-29T12:30:51.688Z,1008.86
2022-08-29T12:33:51.680Z,1008.85
2022-08-29T12:36:52.330Z,1008.81
2022-08-29T12:39:51.677Z,1008.81
2022-08-29T12:42:51.690Z,1008.79
2022-08-29T12:45:51.711Z,1008.76
2022-08-29T12:48:57.142Z,1008.77
2022-08-29T12:51:51.680Z,1008.77
2022-08-29T12:54:55.767Z,1008.69
2022-08-29T12:57:51.693Z,1008.69
2022-08-29T13:00:51.682Z,1008.58
2022-08-29T13:03:51.684Z,1008.5
2022-08-29T13:06:51.686Z,1008.53
2022-08-29T13:09:51.692Z,1008.46
2022-08-29T13:12:51.689Z,1008.38
2022-08-29T13:15:51.767Z,1008.33
2022-08-29T13:19:07.582Z,1008.33
2022-08-29T13:21:51.681Z,1008.29
2022-08-29T13:24:51.688Z,1008.27
2022-08-29T13:27:51.680Z,1008.28
2022-08-29T13:30:51.746Z,1008.25
2022-08-29T13:33:51.693Z,1008.23
2022-08-29T13:36:51.726Z,1008.23
2022-08-29T13:39:51.685Z,1008.26
2022-08-29T13:42:51.695Z,1008.22
2022-08-29T13:45:51.692Z,1008.18
2022-08-29T13:48:51.695Z,1008.2
2022-08-29T13:51:51.680Z,1008.23
2022-08-29T13:54:51.687Z,1008.16
2022-08-29T13:57:51.704Z,1008.14
2022-08-29T14:00:51.691Z,1008.11
2022-08-29T14:03:51.929Z,1008.15
2022-08-29T14:06:51.686Z,1008.12
2022-08-29T14:09:51.687Z,1008.08
2022-08-29T14:12:51.695Z,1008.05
2022-08-29T14:15:51.762Z,1008.01
2022-08-29T14:18:51.695Z,1007.98
2022-08-29T14:21:51.683Z,1008.02
2022-08-29T14:24:51.695Z,1008
2022-08-29T14:27:51.686Z,1007.97
2022-08-29T14:30:52.327Z,1008
2022-08-29T14:33:51.815Z,1007.99
2022-08-29T14:36:51.691Z,1007.97
2022-08-29T14:39:51.697Z,1007.89
2022-08-29T14:42:51.700Z,1007.93
2022-08-29T14:45:51.754Z,1007.91
2022-08-29T14:48:51.703Z,1007.88
2022-08-29T14:51:51.712Z,1007.84
2022-08-29T14:54:51.709Z,1007.85
2022-08-29T14:57:51.709Z,1007.89
2022-08-29T15:00:51.798Z,1007.92
2022-08-29T15:03:51.707Z,1007.86
2022-08-29T15:06:51.711Z,1007.84
2022-08-29T15:09:51.710Z,1007.76
2022-08-29T15:12:51.706Z,1007.74
2022-08-29T15:15:51.760Z,1007.72
2022-08-29T15:19:31.437Z,1007.71
2022-08-29T15:21:51.709Z,1007.69
2022-08-29T15:24:51.758Z,1007.68
2022-08-29T15:27:51.741Z,1007.65
2022-08-29T15:30:51.773Z,1007.57
2022-08-29T15:33:51.748Z,1007.62
2022-08-29T15:36:51.741Z,1007.62
2022-08-29T15:39:52.333Z,1007.63
2022-08-29T15:42:51.748Z,1007.6
2022-08-29T15:45:53.482Z,1007.63
2022-08-29T15:48:51.746Z,1007.65
2022-08-29T15:51:52.977Z,1007.65
2022-08-29T15:54:51.746Z,1007.57
2022-08-29T15:57:52.790Z,1007.59
2022-08-29T16:00:51.757Z,1007.59
2022-08-29T16:03:51.754Z,1007.54
2022-08-29T16:06:51.744Z,1007.53
2022-08-29T16:09:51.782Z,1007.52
2022-08-29T16:12:51.759Z,1007.49
2022-08-29T16:15:51.825Z,1007.48
2022-08-29T16:18:51.761Z,1007.49
2022-08-29T16:21:51.776Z,1007.46
2022-08-29T16:24:51.756Z,1007.43
2022-08-29T16:27:51.759Z,1007.36
2022-08-29T16:30:51.812Z,1007.37
2022-08-29T16:33:51.760Z,1007.4
2022-08-29T16:36:51.758Z,1007.37
2022-08-29T16:39:51.752Z,1007.36
2022-08-29T16:42:55.014Z,1007.35
2022-08-29T16:45:51.776Z,1007.36
2022-08-29T16:48:51.749Z,1007.36
2022-08-29T16:51:51.755Z,1007.36
2022-08-29T16:54:53.689Z,1007.35
2022-08-29T16:57:51.755Z,1007.39
2022-08-29T17:00:51.756Z,1007.34
2022-08-29T17:03:51.760Z,1007.35
2022-08-29T17:06:51.759Z,1007.31
2022-08-29T17:09:51.760Z,1007.32
2022-08-29T17:12:51.758Z,1007.32
2022-08-29T17:15:51.759Z,1007.29
2022-08-29T17:18:51.770Z,1007.29
2022-08-29T17:21:51.760Z,1007.29
2022-08-29T17:24:51.763Z,1007.28
2022-08-29T17:28:07.451Z,1007.28
2022-08-29T17:30:51.849Z,1007.28
2022-08-29T17:33:51.761Z,1007.33
2022-08-29T17:36:51.761Z,1007.35
2022-08-29T17:39:51.761Z,1007.33
2022-08-29T17:42:51.763Z,1007.32
2022-08-29T17:45:51.790Z,1007.36
2022-08-29T17:48:51.758Z,1007.38
2022-08-29T17:51:52.874Z,1007.39
2022-08-29T17:54:51.755Z,1007.39
2022-08-29T17:57:51.768Z,1007.41
2022-08-29T18:00:51.799Z,1007.42
2022-08-29T18:03:51.762Z,1007.42
2022-08-29T18:06:51.765Z,1007.38
2022-08-29T18:09:51.761Z,1007.36
2022-08-29T18:12:51.807Z,1007.39
2022-08-29T18:15:52.610Z,1007.42
2022-08-29T18:18:51.764Z,1007.46
2022-08-29T18:21:51.777Z,1007.46
2022-08-29T18:24:51.761Z,1007.49
2022-08-29T18:27:51.767Z,1007.52
2022-08-29T18:30:51.785Z,1007.53
2022-08-29T18:34:00.827Z,1007.56
2022-08-29T18:36:51.757Z,1007.49
2022-08-29T18:39:51.759Z,1007.51
2022-08-29T18:42:51.760Z,1007.5
2022-08-29T18:45:51.908Z,1007.54
2022-08-29T18:48:51.771Z,1007.53
2022-08-29T18:51:51.757Z,1007.54
2022-08-29T18:54:51.759Z,1007.6
2022-08-29T18:57:51.764Z,1007.67
2022-08-29T19:00:51.969Z,1007.72
2022-08-29T19:03:51.811Z,1007.76
2022-08-29T19:06:51.764Z,1007.72
2022-08-29T19:09:51.774Z,1007.74
2022-08-29T19:12:51.784Z,1007.74
2022-08-29T19:15:51.798Z,1007.8
2022-08-29T19:18:51.776Z,1007.84
2022-08-29T19:21:51.763Z,1007.92
2022-08-29T19:24:51.764Z,1007.93
2022-08-29T19:27:51.768Z,1007.91
2022-08-29T19:30:51.766Z,1007.96
2022-08-29T19:33:51.767Z,1007.94
2022-08-29T19:36:51.771Z,1007.93
2022-08-29T19:39:51.769Z,1007.94
2022-08-29T19:42:51.769Z,1007.93
2022-08-29T19:45:51.881Z,1007.97
2022-08-29T19:48:52.385Z,1008.02
2022-08-29T19:51:51.773Z,1008.02
2022-08-29T19:54:51.774Z,1008.05
2022-08-29T19:57:51.774Z,1008.08
2022-08-29T20:00:51.782Z,1008.1
2022-08-29T20:03:52.247Z,1008.03
2022-08-29T20:06:51.771Z,1008.08
2022-08-29T20:09:51.776Z,1008.07
2022-08-29T20:12:51.780Z,1008.09
2022-08-29T20:15:51.797Z,1008.09
2022-08-29T20:18:51.785Z,1008.05
2022-08-29T20:21:51.773Z,1008.03
2022-08-29T20:24:51.776Z,1008.02
2022-08-29T20:27:51.779Z,1008.07
2022-08-29T20:30:51.772Z,1008.07
2022-08-29T20:33:51.777Z,1008.09
2022-08-29T20:36:51.783Z,1008.11
2022-08-29T20:39:51.786Z,1008.12
2022-08-29T20:42:51.777Z,1008.16
2022-08-29T20:45:51.779Z,1008.13
2022-08-29T20:48:51.777Z,1008.17
2022-08-29T20:51:51.775Z,1008.21
2022-08-29T20:54:51.770Z,1008.21
2022-08-29T20:57:51.782Z,1008.27
2022-08-29T21:00:51.812Z,1008.3
2022-08-29T21:03:52.707Z,1008.28
2022-08-29T21:06:51.790Z,1008.3
2022-08-29T21:09:51.782Z,1008.34
2022-08-29T21:12:51.776Z,1008.32
2022-08-29T21:15:51.857Z,1008.35
2022-08-29T21:18:51.777Z,1008.4
2022-08-29T21:21:51.805Z,1008.44
2022-08-29T21:24:51.782Z,1008.44
2022-08-29T21:27:51.776Z,1008.46
2022-08-29T21:30:51.778Z,1008.44
2022-08-29T21:33:51.776Z,1008.43
2022-08-29T21:36:51.785Z,1008.42
2022-08-29T21:39:51.774Z,1008.38
2022-08-29T21:42:51.780Z,1008.43
2022-08-29T21:45:51.785Z,1008.44
2022-08-29T21:48:55.912Z,1008.43
2022-08-29T21:51:51.782Z,1008.44
2022-08-29T21:54:54.007Z,1008.44
2022-08-29T21:57:51.780Z,1008.42
2022-08-29T22:00:51.781Z,1008.45
2022-08-29T22:03:51.795Z,1008.49
2022-08-29T22:06:52.873Z,1008.54
2022-08-29T22:09:51.803Z,1008.51
2022-08-29T22:12:51.776Z,1008.53
2022-08-29T22:15:51.851Z,1008.54
2022-08-29T22:18:51.788Z,1008.57
2022-08-29T22:21:51.793Z,1008.62
2022-08-29T22:24:51.799Z,1008.62
2022-08-29T22:27:51.787Z,1008.64
2022-08-29T22:30:51.797Z,1008.62
2022-08-29T22:33:51.786Z,1008.67
2022-08-29T22:36:51.788Z,1008.71
2022-08-29T22:39:51.795Z,1008.7
2022-08-29T22:42:51.791Z,1008.76
2022-08-29T22:45:51.790Z,1008.74
2022-08-29T22:48:51.793Z,1008.72
2022-08-29T22:51:51.794Z,1008.76
2022-08-29T22:54:51.792Z,1008.76
2022-08-29T22:57:51.783Z,1008.79
2022-08-29T23:00:51.798Z,1008.78
2022-08-29T23:03:51.794Z,1008.8
2022-08-29T23:06:51.805Z,1008.82
2022-08-29T23:09:51.801Z,1008.75
2022-08-29T23:12:51.797Z,1008.7
2022-08-29T23:15:51.849Z,1008.72
2022-08-29T23:18:51.795Z,1008.72
2022-08-29T23:21:51.797Z,1008.67
2022-08-29T23:24:57.990Z,1008.73
2022-08-29T23:27:51.795Z,1008.75
2022-08-29T23:30:51.842Z,1008.75
2022-08-29T23:33:51.795Z,1008.75
2022-08-29T23:36:51.795Z,1008.77
2022-08-29T23:39:51.795Z,1008.76
2022-08-29T23:42:51.798Z,1008.77
2022-08-29T23:45:51.850Z,1008.77
2022-08-29T23:48:51.803Z,1008.79
2022-08-29T23:51:51.790Z,1008.75
2022-08-29T23:54:51.806Z,1008.74
2022-08-29T23:57:51.795Z,1008.73
